sensor_id;sensor_type;location;lat;lon;timestamp;P1;durP1;ratioP1;P2;durP2;ratioP2
63370;SDS011;49504;48.336;14.472;2022-10-16T00:04:51;3.65;;;1.88;;
63370;SDS011;49504;48.336;14.472;2022-10-16T00:09:53;3.38;;;1.77;;
63370;SDS011;49504;48.336;14.472;2022-10-16T00:14:54;3.90;;;2.10;;
63370;SDS011;49504;48.336;14.472;2022-10-16T00:19:55;4.13;;;2.30;;
63370;SDS011;49504;48.336;14.472;2022-10-16T00:24:57;3.75;;;1.88;;
63370;SDS011;49504;48.336;14.472;2022-10-16T00:29:58;3.35;;;1.88;;
63370;SDS011;49504;48.336;14.472;2022-10-16T00:34:59;4.05;;;1.85;;
63370;SDS011;49504;48.336;14.472;2022-10-16T00:40:01;4.68;;;2.10;;
63370;SDS011;49504;48.336;14.472;2022-10-16T00:45:03;3.47;;;1.77;;
63370;SDS011;49504;48.336;14.472;2022-10-16T00:50:07;3.80;;;1.85;;
63370;SDS011;49504;48.336;14.472;2022-10-16T00:56:49;3.58;;;1.77;;
63370;SDS011;49504;48.336;14.472;2022-10-16T01:01:51;3.38;;;1.75;;
63370;SDS011;49504;48.336;14.472;2022-10-16T01:06:54;3.55;;;1.90;;
63370;SDS011;49504;48.336;14.472;2022-10-16T01:15:45;3.92;;;1.80;;
63370;SDS011;49504;48.336;14.472;2022-10-16T01:20:52;2.97;;;1.42;;
63370;SDS011;49504;48.336;14.472;2022-10-16T01:26:02;3.67;;;1.83;;
63370;SDS011;49504;48.336;14.472;2022-10-16T01:31:22;3.40;;;1.88;;
63370;SDS011;49504;48.336;14.472;2022-10-16T01:39:58;3.65;;;1.90;;
63370;SDS011;49504;48.336;14.472;2022-10-16T01:45:35;3.05;;;1.40;;
63370;SDS011;49504;48.336;14.472;2022-10-16T01:50:37;3.42;;;1.80;;
63370;SDS011;49504;48.336;14.472;2022-10-16T01:55:41;3.50;;;1.63;;
63370;SDS011;49504;48.336;14.472;2022-10-16T02:00:47;3.70;;;1.60;;
63370;SDS011;49504;48.336;14.472;2022-10-16T02:05:49;3.45;;;1.52;;
63370;SDS011;49504;48.336;14.472;2022-10-16T02:10:54;3.00;;;1.42;;
63370;SDS011;49504;48.336;14.472;2022-10-16T02:15:57;3.67;;;1.40;;
63370;SDS011;49504;48.336;14.472;2022-10-16T02:20:58;3.33;;;1.60;;
63370;SDS011;49504;48.336;14.472;2022-10-16T02:26:03;3.70;;;1.90;;
63370;SDS011;49504;48.336;14.472;2022-10-16T02:37:54;3.00;;;1.58;;
63370;SDS011;49504;48.336;14.472;2022-10-16T02:42:56;3.47;;;1.48;;
63370;SDS011;49504;48.336;14.472;2022-10-16T02:51:10;3.55;;;1.73;;
63370;SDS011;49504;48.336;14.472;2022-10-16T03:00:11;3.70;;;1.70;;
63370;SDS011;49504;48.336;14.472;2022-10-16T03:05:14;2.75;;;1.10;;
63370;SDS011;49504;48.336;14.472;2022-10-16T03:10:15;2.70;;;1.10;;
63370;SDS011;49504;48.336;14.472;2022-10-16T03:15:18;3.60;;;1.60;;
63370;SDS011;49504;48.336;14.472;2022-10-16T03:20:19;2.67;;;1.10;;
63370;SDS011;49504;48.336;14.472;2022-10-16T03:25:19;3.03;;;1.48;;
63370;SDS011;49504;48.336;14.472;2022-10-16T03:30:22;2.83;;;1.20;;
63370;SDS011;49504;48.336;14.472;2022-10-16T03:35:23;3.92;;;1.50;;
63370;SDS011;49504;48.336;14.472;2022-10-16T03:40:24;3.83;;;1.30;;
63370;SDS011;49504;48.336;14.472;2022-10-16T03:45:27;2.80;;;1.10;;
63370;SDS011;49504;48.336;14.472;2022-10-16T03:50:28;3.58;;;1.33;;
63370;SDS011;49504;48.336;14.472;2022-10-16T03:55:29;2.72;;;1.20;;
63370;SDS011;49504;48.336;14.472;2022-10-16T04:00:31;2.80;;;1.20;;
63370;SDS011;49504;48.336;14.472;2022-10-16T04:05:32;2.90;;;1.10;;
63370;SDS011;49504;48.336;14.472;2022-10-16T04:10:33;3.40;;;1.35;;
63370;SDS011;49504;48.336;14.472;2022-10-16T04:15:35;2.63;;;1.20;;
63370;SDS011;49504;48.336;14.472;2022-10-16T04:20:36;2.30;;;0.98;;
63370;SDS011;49504;48.336;14.472;2022-10-16T04:25:37;2.90;;;1.00;;
63370;SDS011;49504;48.336;14.472;2022-10-16T04:30:39;2.50;;;1.20;;
63370;SDS011;49504;48.336;14.472;2022-10-16T04:39:40;3.97;;;1.08;;
63370;SDS011;49504;48.336;14.472;2022-10-16T04:45:14;2.72;;;1.13;;
63370;SDS011;49504;48.336;14.472;2022-10-16T04:51:23;2.75;;;1.10;;
63370;SDS011;49504;48.336;14.472;2022-10-16T04:56:24;2.70;;;0.90;;
63370;SDS011;49504;48.336;14.472;2022-10-16T05:04:49;4.20;;;1.42;;
63370;SDS011;49504;48.336;14.472;2022-10-16T05:09:51;2.40;;;0.77;;
63370;SDS011;49504;48.336;14.472;2022-10-16T05:14:52;15.65;;;11.52;;
63370;SDS011;49504;48.336;14.472;2022-10-16T05:19:55;3.53;;;1.60;;
63370;SDS011;49504;48.336;14.472;2022-10-16T05:24:55;2.88;;;1.35;;
63370;SDS011;49504;48.336;14.472;2022-10-16T05:29:56;3.28;;;1.38;;
63370;SDS011;49504;48.336;14.472;2022-10-16T05:34:59;2.78;;;1.08;;
63370;SDS011;49504;48.336;14.472;2022-10-16T05:40:00;2.65;;;1.10;;
63370;SDS011;49504;48.336;14.472;2022-10-16T05:45:57;3.00;;;1.13;;
63370;SDS011;49504;48.336;14.472;2022-10-16T05:51:00;2.13;;;0.80;;
63370;SDS011;49504;48.336;14.472;2022-10-16T05:56:04;2.17;;;0.88;;
63370;SDS011;49504;48.336;14.472;2022-10-16T06:01:10;2.25;;;0.80;;
63370;SDS011;49504;48.336;14.472;2022-10-16T06:06:14;2.00;;;0.75;;
63370;SDS011;49504;48.336;14.472;2022-10-16T06:11:17;2.17;;;0.82;;
63370;SDS011;49504;48.336;14.472;2022-10-16T06:16:22;3.10;;;0.90;;
63370;SDS011;49504;48.336;14.472;2022-10-16T06:21:23;3.53;;;1.10;;
63370;SDS011;49504;48.336;14.472;2022-10-16T06:26:26;2.33;;;0.90;;
63370;SDS011;49504;48.336;14.472;2022-10-16T06:31:30;2.58;;;0.88;;
63370;SDS011;49504;48.336;14.472;2022-10-16T06:36:32;2.70;;;1.15;;
63370;SDS011;49504;48.336;14.472;2022-10-16T06:43:39;2.63;;;1.02;;
63370;SDS011;49504;48.336;14.472;2022-10-16T06:50:11;1.95;;;0.68;;
63370;SDS011;49504;48.336;14.472;2022-10-16T06:55:12;2.90;;;0.98;;
63370;SDS011;49504;48.336;14.472;2022-10-16T07:00:13;2.70;;;0.90;;
63370;SDS011;49504;48.336;14.472;2022-10-16T07:08:12;2.28;;;0.85;;
63370;SDS011;49504;48.336;14.472;2022-10-16T07:13:13;3.03;;;1.00;;
63370;SDS011;49504;48.336;14.472;2022-10-16T07:18:14;2.33;;;0.93;;
63370;SDS011;49504;48.336;14.472;2022-10-16T07:24:45;2.08;;;0.60;;
63370;SDS011;49504;48.336;14.472;2022-10-16T07:29:47;1.88;;;0.70;;
63370;SDS011;49504;48.336;14.472;2022-10-16T07:39:26;1.92;;;0.73;;
63370;SDS011;49504;48.336;14.472;2022-10-16T07:49:09;3.35;;;0.70;;
63370;SDS011;49504;48.336;14.472;2022-10-16T07:54:10;2.00;;;0.80;;
63370;SDS011;49504;48.336;14.472;2022-10-16T08:00:47;2.78;;;0.90;;
63370;SDS011;49504;48.336;14.472;2022-10-16T08:05:48;3.78;;;1.30;;
63370;SDS011;49504;48.336;14.472;2022-10-16T08:10:49;3.17;;;0.77;;
63370;SDS011;49504;48.336;14.472;2022-10-16T08:15:53;2.95;;;0.90;;
63370;SDS011;49504;48.336;14.472;2022-10-16T08:20:55;3.63;;;0.80;;
63370;SDS011;49504;48.336;14.472;2022-10-16T08:26:02;3.00;;;0.88;;
63370;SDS011;49504;48.336;14.472;2022-10-16T08:31:07;2.63;;;0.65;;
63370;SDS011;49504;48.336;14.472;2022-10-16T08:39:55;3.30;;;1.00;;
63370;SDS011;49504;48.336;14.472;2022-10-16T08:49:21;3.40;;;0.85;;
63370;SDS011;49504;48.336;14.472;2022-10-16T08:54:25;2.58;;;0.93;;
63370;SDS011;49504;48.336;14.472;2022-10-16T08:59:30;3.72;;;0.98;;
63370;SDS011;49504;48.336;14.472;2022-10-16T09:06:40;2.47;;;1.05;;
63370;SDS011;49504;48.336;14.472;2022-10-16T09:11:48;2.45;;;0.95;;
63370;SDS011;49504;48.336;14.472;2022-10-16T09:16:58;3.20;;;1.20;;
63370;SDS011;49504;48.336;14.472;2022-10-16T09:22:10;3.25;;;1.05;;
63370;SDS011;49504;48.336;14.472;2022-10-16T09:27:15;3.72;;;1.05;;
63370;SDS011;49504;48.336;14.472;2022-10-16T09:32:17;4.18;;;1.17;;
63370;SDS011;49504;48.336;14.472;2022-10-16T09:37:22;2.30;;;0.90;;
63370;SDS011;49504;48.336;14.472;2022-10-16T09:42:26;2.60;;;0.90;;
63370;SDS011;49504;48.336;14.472;2022-10-16T09:51:34;2.80;;;1.05;;
63370;SDS011;49504;48.336;14.472;2022-10-16T09:56:37;2.95;;;1.00;;
63370;SDS011;49504;48.336;14.472;2022-10-16T10:01:39;3.10;;;1.10;;
63370;SDS011;49504;48.336;14.472;2022-10-16T10:06:45;3.47;;;1.40;;
63370;SDS011;49504;48.336;14.472;2022-10-16T10:11:49;5.95;;;0.98;;
63370;SDS011;49504;48.336;14.472;2022-10-16T10:19:09;2.90;;;1.02;;
63370;SDS011;49504;48.336;14.472;2022-10-16T10:24:16;3.78;;;1.20;;
63370;SDS011;49504;48.336;14.472;2022-10-16T10:29:25;7.13;;;1.83;;
63370;SDS011;49504;48.336;14.472;2022-10-16T10:34:47;4.85;;;1.65;;
63370;SDS011;49504;48.336;14.472;2022-10-16T10:40:08;5.45;;;1.50;;
63370;SDS011;49504;48.336;14.472;2022-10-16T10:47:38;7.47;;;3.42;;
63370;SDS011;49504;48.336;14.472;2022-10-16T10:52:52;28.88;;;12.20;;
63370;SDS011;49504;48.336;14.472;2022-10-16T10:58:15;37.03;;;16.23;;
63370;SDS011;49504;48.336;14.472;2022-10-16T11:03:51;45.22;;;20.08;;
63370;SDS011;49504;48.336;14.472;2022-10-16T11:09:09;30.77;;;14.95;;
63370;SDS011;49504;48.336;14.472;2022-10-16T11:14:16;31.88;;;15.50;;
63370;SDS011;49504;48.336;14.472;2022-10-16T11:19:25;22.38;;;11.85;;
63370;SDS011;49504;48.336;14.472;2022-10-16T11:24:36;31.35;;;14.00;;
63370;SDS011;49504;48.336;14.472;2022-10-16T11:29:46;33.83;;;14.75;;
63370;SDS011;49504;48.336;14.472;2022-10-16T11:34:55;36.30;;;17.17;;
63370;SDS011;49504;48.336;14.472;2022-10-16T11:41:49;295.73;;;246.55;;
63370;SDS011;49504;48.336;14.472;2022-10-16T11:46:58;70.20;;;47.03;;
63370;SDS011;49504;48.336;14.472;2022-10-16T11:52:12;56.58;;;32.33;;
63370;SDS011;49504;48.336;14.472;2022-10-16T11:57:23;281.60;;;170.85;;
63370;SDS011;49504;48.336;14.472;2022-10-16T12:02:32;296.75;;;236.68;;
63370;SDS011;49504;48.336;14.472;2022-10-16T12:07:55;197.43;;;164.70;;
63370;SDS011;49504;48.336;14.472;2022-10-16T12:13:30;134.60;;;105.65;;
63370;SDS011;49504;48.336;14.472;2022-10-16T12:18:36;100.35;;;78.72;;
63370;SDS011;49504;48.336;14.472;2022-10-16T12:23:47;83.60;;;67.85;;
63370;SDS011;49504;48.336;14.472;2022-10-16T12:28:56;70.18;;;56.00;;
63370;SDS011;49504;48.336;14.472;2022-10-16T12:34:14;60.63;;;46.20;;
63370;SDS011;49504;48.336;14.472;2022-10-16T12:39:27;52.88;;;41.58;;
63370;SDS011;49504;48.336;14.472;2022-10-16T12:47:53;40.75;;;31.00;;
63370;SDS011;49504;48.336;14.472;2022-10-16T12:52:55;30.98;;;22.80;;
63370;SDS011;49504;48.336;14.472;2022-10-16T13:00:45;26.05;;;19.15;;
63370;SDS011;49504;48.336;14.472;2022-10-16T13:05:57;23.52;;;16.23;;
63370;SDS011;49504;48.336;14.472;2022-10-16T13:11:15;20.92;;;14.85;;
63370;SDS011;49504;48.336;14.472;2022-10-16T13:16:29;21.67;;;13.20;;
63370;SDS011;49504;48.336;14.472;2022-10-16T14:31:31;4.93;;;2.42;;
63370;SDS011;49504;48.336;14.472;2022-10-16T14:36:33;5.95;;;2.22;;
63370;SDS011;49504;48.336;14.472;2022-10-16T14:41:40;5.70;;;2.00;;
63370;SDS011;49504;48.336;14.472;2022-10-16T14:54:13;5.85;;;2.30;;
63370;SDS011;49504;48.336;14.472;2022-10-16T15:02:52;9.63;;;2.83;;
63370;SDS011;49504;48.336;14.472;2022-10-16T15:07:53;6.10;;;2.30;;
63370;SDS011;49504;48.336;14.472;2022-10-16T15:12:55;5.28;;;2.38;;
63370;SDS011;49504;48.336;14.472;2022-10-16T15:17:58;4.88;;;1.92;;
63370;SDS011;49504;48.336;14.472;2022-10-16T15:26:45;5.28;;;1.80;;
63370;SDS011;49504;48.336;14.472;2022-10-16T15:33:00;4.97;;;2.20;;
63370;SDS011;49504;48.336;14.472;2022-10-16T15:38:02;4.47;;;1.48;;
63370;SDS011;49504;48.336;14.472;2022-10-16T15:47:18;5.38;;;1.67;;
63370;SDS011;49504;48.336;14.472;2022-10-16T15:52:19;4.68;;;1.50;;
63370;SDS011;49504;48.336;14.472;2022-10-16T15:57:20;3.47;;;1.30;;
63370;SDS011;49504;48.336;14.472;2022-10-16T16:06:50;4.38;;;1.60;;
63370;SDS011;49504;48.336;14.472;2022-10-16T16:11:51;4.65;;;1.38;;
63370;SDS011;49504;48.336;14.472;2022-10-16T16:16:52;3.80;;;1.60;;
63370;SDS011;49504;48.336;14.472;2022-10-16T16:21:55;4.47;;;1.30;;
63370;SDS011;49504;48.336;14.472;2022-10-16T16:26:56;4.47;;;1.75;;
63370;SDS011;49504;48.336;14.472;2022-10-16T16:36:35;3.47;;;1.38;;
63370;SDS011;49504;48.336;14.472;2022-10-16T16:41:36;3.80;;;1.30;;
63370;SDS011;49504;48.336;14.472;2022-10-16T16:46:37;4.18;;;1.27;;
63370;SDS011;49504;48.336;14.472;2022-10-16T16:51:40;4.32;;;1.35;;
63370;SDS011;49504;48.336;14.472;2022-10-16T16:56:41;3.50;;;1.20;;
63370;SDS011;49504;48.336;14.472;2022-10-16T17:01:42;5.97;;;1.75;;
63370;SDS011;49504;48.336;14.472;2022-10-16T17:06:45;4.25;;;1.30;;
63370;SDS011;49504;48.336;14.472;2022-10-16T17:15:04;3.85;;;1.67;;
63370;SDS011;49504;48.336;14.472;2022-10-16T17:20:07;3.80;;;1.23;;
63370;SDS011;49504;48.336;14.472;2022-10-16T17:25:09;3.55;;;1.20;;
63370;SDS011;49504;48.336;14.472;2022-10-16T17:30:11;5.55;;;1.60;;
63370;SDS011;49504;48.336;14.472;2022-10-16T17:38:49;3.35;;;1.15;;
63370;SDS011;49504;48.336;14.472;2022-10-16T17:44:28;4.70;;;1.10;;
63370;SDS011;49504;48.336;14.472;2022-10-16T17:49:29;3.95;;;1.30;;
63370;SDS011;49504;48.336;14.472;2022-10-16T17:54:30;3.92;;;1.50;;
63370;SDS011;49504;48.336;14.472;2022-10-16T18:01:24;3.72;;;1.20;;
63370;SDS011;49504;48.336;14.472;2022-10-16T18:10:19;3.95;;;1.20;;
63370;SDS011;49504;48.336;14.472;2022-10-16T18:15:20;4.03;;;1.33;;
63370;SDS011;49504;48.336;14.472;2022-10-16T18:22:43;3.38;;;1.30;;
63370;SDS011;49504;48.336;14.472;2022-10-16T18:27:44;4.00;;;1.50;;
63370;SDS011;49504;48.336;14.472;2022-10-16T18:39:39;4.53;;;1.40;;
63370;SDS011;49504;48.336;14.472;2022-10-16T18:44:40;8.38;;;1.70;;
63370;SDS011;49504;48.336;14.472;2022-10-16T18:49:41;5.10;;;1.65;;
63370;SDS011;49504;48.336;14.472;2022-10-16T18:54:44;4.95;;;1.50;;
63370;SDS011;49504;48.336;14.472;2022-10-16T18:59:45;5.30;;;1.27;;
63370;SDS011;49504;48.336;14.472;2022-10-16T19:06:19;3.78;;;1.38;;
63370;SDS011;49504;48.336;14.472;2022-10-16T19:15:00;3.50;;;1.25;;
63370;SDS011;49504;48.336;14.472;2022-10-16T19:24:07;3.67;;;1.55;;
63370;SDS011;49504;48.336;14.472;2022-10-16T19:29:13;3.23;;;1.17;;
63370;SDS011;49504;48.336;14.472;2022-10-16T19:34:14;3.58;;;1.02;;
63370;SDS011;49504;48.336;14.472;2022-10-16T19:39:16;3.55;;;1.27;;
63370;SDS011;49504;48.336;14.472;2022-10-16T19:44:17;4.07;;;1.48;;
63370;SDS011;49504;48.336;14.472;2022-10-16T19:49:18;3.30;;;1.23;;
63370;SDS011;49504;48.336;14.472;2022-10-16T19:55:30;3.42;;;1.10;;
63370;SDS011;49504;48.336;14.472;2022-10-16T20:00:31;3.78;;;1.40;;
63370;SDS011;49504;48.336;14.472;2022-10-16T20:05:32;4.60;;;1.50;;
63370;SDS011;49504;48.336;14.472;2022-10-16T20:10:34;3.00;;;1.02;;
63370;SDS011;49504;48.336;14.472;2022-10-16T20:19:02;3.22;;;0.90;;
63370;SDS011;49504;48.336;14.472;2022-10-16T20:24:03;3.33;;;1.17;;
63370;SDS011;49504;48.336;14.472;2022-10-16T20:29:05;3.00;;;0.88;;
63370;SDS011;49504;48.336;14.472;2022-10-16T20:34:08;3.33;;;1.15;;
63370;SDS011;49504;48.336;14.472;2022-10-16T20:39:11;3.17;;;1.10;;
63370;SDS011;49504;48.336;14.472;2022-10-16T20:44:12;6.60;;;1.38;;
63370;SDS011;49504;48.336;14.472;2022-10-16T20:49:14;2.97;;;1.02;;
63370;SDS011;49504;48.336;14.472;2022-10-16T20:54:15;3.83;;;1.33;;
63370;SDS011;49504;48.336;14.472;2022-10-16T21:01:10;2.72;;;1.10;;
63370;SDS011;49504;48.336;14.472;2022-10-16T21:13:00;3.40;;;1.10;;
63370;SDS011;49504;48.336;14.472;2022-10-16T21:18:01;3.47;;;1.20;;
63370;SDS011;49504;48.336;14.472;2022-10-16T21:23:02;2.60;;;1.00;;
63370;SDS011;49504;48.336;14.472;2022-10-16T21:28:05;3.10;;;1.00;;
63370;SDS011;49504;48.336;14.472;2022-10-16T21:33:06;3.33;;;1.00;;
63370;SDS011;49504;48.336;14.472;2022-10-16T21:39:49;3.38;;;1.00;;
63370;SDS011;49504;48.336;14.472;2022-10-16T21:49:56;2.88;;;1.10;;
63370;SDS011;49504;48.336;14.472;2022-10-16T21:54:57;3.08;;;1.20;;
63370;SDS011;49504;48.336;14.472;2022-10-16T21:59:58;3.50;;;1.20;;
63370;SDS011;49504;48.336;14.472;2022-10-16T22:05:00;2.80;;;0.90;;
63370;SDS011;49504;48.336;14.472;2022-10-16T22:10:01;2.60;;;0.80;;
63370;SDS011;49504;48.336;14.472;2022-10-16T22:15:03;3.10;;;0.93;;
63370;SDS011;49504;48.336;14.472;2022-10-16T22:20:07;2.83;;;0.90;;
63370;SDS011;49504;48.336;14.472;2022-10-16T22:25:09;2.70;;;0.90;;
63370;SDS011;49504;48.336;14.472;2022-10-16T22:30:10;2.28;;;0.80;;
63370;SDS011;49504;48.336;14.472;2022-10-16T22:35:12;3.85;;;1.20;;
63370;SDS011;49504;48.336;14.472;2022-10-16T22:40:13;2.80;;;0.98;;
63370;SDS011;49504;48.336;14.472;2022-10-16T22:45:15;3.35;;;1.20;;
63370;SDS011;49504;48.336;14.472;2022-10-16T22:50:17;2.67;;;0.73;;
63370;SDS011;49504;48.336;14.472;2022-10-16T22:55:18;3.00;;;1.02;;
63370;SDS011;49504;48.336;14.472;2022-10-16T23:00:19;2.80;;;1.05;;
63370;SDS011;49504;48.336;14.472;2022-10-16T23:05:21;2.53;;;0.82;;
63370;SDS011;49504;48.336;14.472;2022-10-16T23:10:22;3.50;;;0.70;;
63370;SDS011;49504;48.336;14.472;2022-10-16T23:15:23;4.57;;;1.38;;
63370;SDS011;49504;48.336;14.472;2022-10-16T23:20:26;2.67;;;0.80;;
63370;SDS011;49504;48.336;14.472;2022-10-16T23:25:27;3.05;;;1.13;;
63370;SDS011;49504;48.336;14.472;2022-10-16T23:31:28;2.53;;;0.88;;
63370;SDS011;49504;48.336;14.472;2022-10-16T23:36:29;2.60;;;1.00;;
63370;SDS011;49504;48.336;14.472;2022-10-16T23:41:30;3.50;;;1.02;;
63370;SDS011;49504;48.336;14.472;2022-10-16T23:46:32;3.63;;;1.20;;
63370;SDS011;49504;48.336;14.472;2022-10-16T23:51:33;2.80;;;0.90;;
63370;SDS011;49504;48.336;14.472;2022-10-16T23:56:34;2.60;;;0.80;;
